createdAt,value
2022-12-28T00:00:48.043Z,1008.80
2022-12-28T00:01:48.092Z,1008.78
2022-12-28T00:02:48.011Z,1008.75
2022-12-28T00:03:47.943Z,1008.72
2022-12-28T00:04:47.934Z,1008.71
2022-12-28T00:05:47.931Z,1008.72
2022-12-28T00:06:47.901Z,1008.67
2022-12-28T00:07:47.901Z,1008.69
2022-12-28T00:08:47.898Z,1008.70
2022-12-28T00:09:47.905Z,1008.73
2022-12-28T00:11:07.621Z,1008.67
2022-12-28T00:11:48.890Z,1008.70
2022-12-28T00:12:47.829Z,1008.68
2022-12-28T00:13:47.842Z,1008.67
2022-12-28T00:14:47.819Z,1008.61
2022-12-28T00:15:47.823Z,1008.62
2022-12-28T00:16:47.820Z,1008.60
2022-12-28T00:17:47.777Z,1008.53
2022-12-28T00:18:47.770Z,1008.54
2022-12-28T00:19:47.763Z,1008.53
2022-12-28T00:20:47.726Z,1008.51
2022-12-28T00:21:47.731Z,1008.52
2022-12-28T00:22:47.707Z,1008.49
2022-12-28T00:23:47.696Z,1008.57
2022-12-28T00:24:47.693Z,1008.56
2022-12-28T00:25:47.657Z,1008.54
2022-12-28T00:26:47.661Z,1008.53
2022-12-28T00:27:47.638Z,1008.58
2022-12-28T00:28:47.616Z,1008.53
2022-12-28T00:29:47.633Z,1008.48
2022-12-28T00:30:47.616Z,1008.49
2022-12-28T00:31:47.700Z,1008.47
2022-12-28T00:32:47.578Z,1008.48
2022-12-28T00:33:47.565Z,1008.49
2022-12-28T00:34:47.574Z,1008.47
2022-12-28T00:35:47.545Z,1008.44
2022-12-28T00:37:09.226Z,1008.39
2022-12-28T00:37:48.540Z,1008.39
2022-12-28T00:38:47.501Z,1008.39
2022-12-28T00:39:47.502Z,1008.36
2022-12-28T00:40:47.475Z,1008.36
2022-12-28T00:41:47.517Z,1008.33
2022-12-28T00:42:47.450Z,1008.31
2022-12-28T00:43:47.487Z,1008.35
2022-12-28T00:44:47.434Z,1008.27
2022-12-28T00:45:47.458Z,1008.34
2022-12-28T00:46:47.393Z,1008.35
2022-12-28T00:47:47.386Z,1008.29
2022-12-28T00:48:47.382Z,1008.28
2022-12-28T00:49:47.394Z,1008.32
2022-12-28T00:50:47.350Z,1008.29
2022-12-28T00:51:47.332Z,1008.27
2022-12-28T00:52:47.342Z,1008.30
2022-12-28T00:53:47.303Z,1008.24
2022-12-28T00:54:47.293Z,1008.34
2022-12-28T00:55:47.282Z,1008.29
2022-12-28T00:56:47.263Z,1008.29
2022-12-28T00:57:47.247Z,1008.30
2022-12-28T00:58:47.253Z,1008.31
2022-12-28T00:59:47.251Z,1008.26
2022-12-28T01:00:47.244Z,1008.23
2022-12-28T01:01:47.351Z,1008.28
2022-12-28T01:02:47.251Z,1008.23
2022-12-28T01:03:47.200Z,1008.20
2022-12-28T01:04:47.180Z,1008.25
2022-12-28T01:05:47.153Z,1008.20
2022-12-28T01:06:47.149Z,1008.26
2022-12-28T01:07:47.132Z,1008.26
2022-12-28T01:08:47.155Z,1008.23
2022-12-28T01:09:47.126Z,1008.24
2022-12-28T01:10:47.119Z,1008.22
2022-12-28T01:11:47.106Z,1008.24
2022-12-28T01:12:47.073Z,1008.24
2022-12-28T01:13:47.102Z,1008.27
2022-12-28T01:14:47.056Z,1008.22
2022-12-28T01:15:47.027Z,1008.21
2022-12-28T01:16:47.068Z,1008.26
2022-12-28T01:17:47.007Z,1008.20
2022-12-28T01:18:46.998Z,1008.24
2022-12-28T01:19:53.643Z,1008.19
2022-12-28T01:20:47.968Z,1008.19
2022-12-28T01:21:46.958Z,1008.14
2022-12-28T01:22:46.970Z,1008.13
2022-12-28T01:23:46.926Z,1008.20
2022-12-28T01:24:46.948Z,1008.15
2022-12-28T01:25:46.884Z,1008.15
2022-12-28T01:26:46.900Z,1008.14
2022-12-28T01:27:46.886Z,1008.11
2022-12-28T01:28:46.868Z,1008.15
2022-12-28T01:29:46.847Z,1008.09
2022-12-28T01:30:46.838Z,1008.07
2022-12-28T01:31:46.865Z,1008.02
2022-12-28T01:32:46.818Z,1008.07
2022-12-28T01:33:46.796Z,1008.02
2022-12-28T01:34:46.793Z,1008.02
2022-12-28T01:35:46.771Z,1007.95
2022-12-28T01:36:46.753Z,1007.93
2022-12-28T01:37:46.763Z,1007.92
2022-12-28T01:38:46.731Z,1007.87
2022-12-28T01:39:46.741Z,1007.84
2022-12-28T01:40:46.702Z,1007.84
2022-12-28T01:41:46.706Z,1007.79
2022-12-28T01:42:46.701Z,1007.80
2022-12-28T01:43:46.672Z,1007.80
2022-12-28T01:44:46.736Z,1007.75
2022-12-28T01:45:46.656Z,1007.76
2022-12-28T01:46:46.644Z,1007.69
2022-12-28T01:47:46.611Z,1007.71
2022-12-28T01:48:46.610Z,1007.65
2022-12-28T01:49:46.604Z,1007.63
2022-12-28T01:50:46.584Z,1007.60
2022-12-28T01:51:46.564Z,1007.57
2022-12-28T01:52:46.561Z,1007.60
2022-12-28T01:53:46.542Z,1007.58
2022-12-28T01:54:46.542Z,1007.54
2022-12-28T01:55:46.521Z,1007.54
2022-12-28T01:56:46.503Z,1007.52
2022-12-28T01:57:46.490Z,1007.45
2022-12-28T01:58:46.489Z,1007.43
2022-12-28T01:59:46.482Z,1007.41
2022-12-28T02:00:46.473Z,1007.40
2022-12-28T02:01:46.571Z,1007.37
2022-12-28T02:02:46.552Z,1007.33
2022-12-28T02:03:46.416Z,1007.30
2022-12-28T02:04:46.416Z,1007.27
2022-12-28T02:05:46.406Z,1007.23
2022-12-28T02:06:46.384Z,1007.24
2022-12-28T02:07:46.365Z,1007.22
2022-12-28T02:08:46.384Z,1007.18
2022-12-28T02:10:42.240Z,1007.09
2022-12-28T02:10:47.339Z,1007.09
2022-12-28T02:11:46.321Z,1007.08
2022-12-28T02:12:46.346Z,1007.02
2022-12-28T02:13:46.313Z,1006.95
2022-12-28T02:14:46.311Z,1006.99
2022-12-28T02:15:46.498Z,1006.94
2022-12-28T02:16:46.301Z,1006.87
2022-12-28T02:17:46.243Z,1006.88
2022-12-28T02:18:46.235Z,1006.82
2022-12-28T02:19:46.244Z,1006.77
2022-12-28T02:20:46.214Z,1006.78
2022-12-28T02:21:46.204Z,1006.71
2022-12-28T02:22:46.174Z,1006.74
2022-12-28T02:23:46.204Z,1006.70
2022-12-28T02:24:46.172Z,1006.67
2022-12-28T02:25:46.145Z,1006.58
2022-12-28T02:26:46.137Z,1006.65
2022-12-28T02:27:46.114Z,1006.55
2022-12-28T02:28:46.108Z,1006.58
2022-12-28T02:29:46.101Z,1006.60
2022-12-28T02:30:46.112Z,1006.57
2022-12-28T02:31:46.079Z,1006.56
2022-12-28T02:32:46.049Z,1006.54
2022-12-28T02:33:46.041Z,1006.53
2022-12-28T02:34:46.050Z,1006.58
2022-12-28T02:35:46.014Z,1006.51
2022-12-28T02:36:46.011Z,1006.47
2022-12-28T02:37:45.979Z,1006.49
2022-12-28T02:38:45.993Z,1006.49
2022-12-28T02:39:45.980Z,1006.45
2022-12-28T02:40:45.959Z,1006.41
2022-12-28T02:41:45.940Z,1006.47
2022-12-28T02:42:45.943Z,1006.41
2022-12-28T02:43:45.925Z,1006.41
2022-12-28T02:44:45.922Z,1006.38
2022-12-28T02:45:45.890Z,1006.37
2022-12-28T02:46:45.888Z,1006.35
2022-12-28T02:47:45.890Z,1006.36
2022-12-28T02:48:45.856Z,1006.35
2022-12-28T02:49:45.849Z,1006.26
2022-12-28T02:50:45.858Z,1006.28
2022-12-28T02:51:45.806Z,1006.24
2022-12-28T02:52:45.882Z,1006.28
2022-12-28T02:53:45.783Z,1006.23
2022-12-28T02:54:45.792Z,1006.25
2022-12-28T02:55:46.682Z,1006.28
2022-12-28T02:56:45.748Z,1006.18
2022-12-28T02:57:45.729Z,1006.22
2022-12-28T02:58:45.729Z,1006.16
2022-12-28T02:59:45.707Z,1006.17
2022-12-28T03:00:45.704Z,1006.17
2022-12-28T03:01:45.894Z,1006.17
2022-12-28T03:02:45.762Z,1006.11
2022-12-28T03:03:45.671Z,1006.08
2022-12-28T03:04:45.679Z,1006.13
2022-12-28T03:05:45.660Z,1006.07
2022-12-28T03:06:45.641Z,1006.09
2022-12-28T03:07:45.605Z,1006.02
2022-12-28T03:08:45.613Z,1006.05
2022-12-28T03:09:45.622Z,1006.00
2022-12-28T03:10:45.587Z,1005.99
2022-12-28T03:11:45.585Z,1005.98
2022-12-28T03:12:45.549Z,1005.93
2022-12-28T03:13:45.551Z,1005.87
2022-12-28T03:14:45.572Z,1005.87
2022-12-28T03:15:45.637Z,1005.82
2022-12-28T03:16:45.507Z,1005.80
2022-12-28T03:17:45.502Z,1005.74
2022-12-28T03:18:45.485Z,1005.74
2022-12-28T03:19:45.482Z,1005.69
2022-12-28T03:20:45.444Z,1005.71
2022-12-28T03:21:45.435Z,1005.68
2022-12-28T03:22:45.424Z,1005.70
2022-12-28T03:23:45.411Z,1005.68
2022-12-28T03:24:45.415Z,1005.69
2022-12-28T03:25:45.383Z,1005.66
2022-12-28T03:26:45.378Z,1005.67
2022-12-28T03:27:45.343Z,1005.67
2022-12-28T03:28:45.337Z,1005.58
2022-12-28T03:29:45.345Z,1005.59
2022-12-28T03:30:45.351Z,1005.63
2022-12-28T03:31:45.310Z,1005.60
2022-12-28T03:32:45.296Z,1005.51
2022-12-28T03:33:45.282Z,1005.51
2022-12-28T03:34:45.295Z,1005.52
2022-12-28T03:35:45.254Z,1005.44
2022-12-28T03:36:45.240Z,1005.44
2022-12-28T03:37:45.231Z,1005.39
2022-12-28T03:38:45.208Z,1005.35
2022-12-28T03:39:45.236Z,1005.29
2022-12-28T03:40:45.189Z,1005.27
2022-12-28T03:41:45.187Z,1005.26
2022-12-28T03:42:45.168Z,1005.19
2022-12-28T03:43:45.161Z,1005.22
2022-12-28T03:44:45.157Z,1005.12
2022-12-28T03:45:47.455Z,1005.16
2022-12-28T03:46:45.152Z,1005.15
2022-12-28T03:47:45.091Z,1005.15
2022-12-28T03:48:45.096Z,1005.07
2022-12-28T03:49:45.085Z,1005.12
2022-12-28T03:50:45.090Z,1005.11
2022-12-28T03:51:45.042Z,1005.04
2022-12-28T03:52:45.027Z,1004.99
2022-12-28T03:53:45.021Z,1004.95
2022-12-28T03:54:45.046Z,1004.89
2022-12-28T03:55:45.008Z,1004.90
2022-12-28T03:56:44.988Z,1004.87
2022-12-28T03:57:44.965Z,1004.88
2022-12-28T03:58:44.957Z,1004.81
2022-12-28T03:59:44.990Z,1004.77
2022-12-28T04:00:44.942Z,1004.87
2022-12-28T04:01:45.052Z,1004.90
2022-12-28T04:02:44.997Z,1004.86
2022-12-28T04:03:44.889Z,1004.88
2022-12-28T04:04:44.911Z,1004.84
2022-12-28T04:05:44.870Z,1004.81
2022-12-28T04:06:44.876Z,1004.76
2022-12-28T04:07:44.839Z,1004.72
2022-12-28T04:08:44.835Z,1004.69
2022-12-28T04:09:44.855Z,1004.67
2022-12-28T04:10:44.822Z,1004.62
2022-12-28T04:11:44.791Z,1004.57
2022-12-28T04:12:44.795Z,1004.65
2022-12-28T04:13:44.770Z,1004.56
2022-12-28T04:14:44.796Z,1004.62
2022-12-28T04:15:44.765Z,1004.57
2022-12-28T04:16:44.734Z,1004.63
2022-12-28T04:17:44.712Z,1004.63
2022-12-28T04:18:44.712Z,1004.63
2022-12-28T04:19:44.699Z,1004.64
2022-12-28T04:20:44.686Z,1004.60
2022-12-28T04:21:44.664Z,1004.59
2022-12-28T04:22:44.650Z,1004.53
2022-12-28T04:23:44.643Z,1004.55
2022-12-28T04:24:44.643Z,1004.47
2022-12-28T04:25:44.634Z,1004.49
2022-12-28T04:26:44.626Z,1004.53
2022-12-28T04:27:44.587Z,1004.43
2022-12-28T04:28:44.574Z,1004.43
2022-12-28T04:29:44.613Z,1004.36
2022-12-28T04:30:44.556Z,1004.32
2022-12-28T04:31:44.544Z,1004.32
2022-12-28T04:32:44.524Z,1004.31
2022-12-28T04:33:44.510Z,1004.31
2022-12-28T04:34:48.441Z,1004.28
2022-12-28T04:35:44.477Z,1004.21
2022-12-28T04:36:44.471Z,1004.26
2022-12-28T04:37:44.449Z,1004.28
2022-12-28T04:38:44.452Z,1004.26
2022-12-28T04:39:55.203Z,1004.19
2022-12-28T04:40:45.433Z,1004.22
2022-12-28T04:41:44.416Z,1004.14
2022-12-28T04:42:44.397Z,1004.18
2022-12-28T04:43:44.374Z,1004.06
2022-12-28T04:44:44.380Z,1004.08
2022-12-28T04:45:44.357Z,1004.09
2022-12-28T04:46:44.457Z,1004.08
2022-12-28T04:47:44.322Z,1004.11
2022-12-28T04:48:44.337Z,1004.05
2022-12-28T04:49:44.346Z,1004.15
2022-12-28T04:50:44.287Z,1004.19
2022-12-28T04:51:44.284Z,1004.11
2022-12-28T04:52:44.277Z,1004.06
2022-12-28T04:53:44.247Z,1004.02
2022-12-28T04:54:44.250Z,1003.95
2022-12-28T04:55:44.222Z,1004.01
2022-12-28T04:56:44.203Z,1004.03
2022-12-28T04:57:44.203Z,1004.08
2022-12-28T04:58:44.197Z,1004.06
2022-12-28T04:59:44.184Z,1004.09
2022-12-28T05:00:44.237Z,1004.09
2022-12-28T05:01:44.229Z,1004.03
2022-12-28T05:02:46.440Z,1004.07
2022-12-28T05:03:48.156Z,1004.06
2022-12-28T05:04:45.120Z,1004.02
2022-12-28T05:05:44.100Z,1004.04
2022-12-28T05:06:44.077Z,1004.04
2022-12-28T05:07:44.059Z,1004.10
2022-12-28T05:08:44.052Z,1004.03
2022-12-28T05:09:44.056Z,1004.02
2022-12-28T05:10:44.048Z,1004.07
2022-12-28T05:11:44.017Z,1004.08
2022-12-28T05:12:44.007Z,1004.09
2022-12-28T05:13:44.010Z,1004.17
2022-12-28T05:14:44.002Z,1004.07
2022-12-28T05:15:44.005Z,1004.08
2022-12-28T05:16:43.982Z,1004.05
2022-12-28T05:17:43.964Z,1004.10
2022-12-28T05:18:43.927Z,1004.09
2022-12-28T05:19:43.933Z,1004.11
2022-12-28T05:20:43.910Z,1004.07
2022-12-28T05:21:43.884Z,1004.08
2022-12-28T05:22:43.878Z,1004.05
2022-12-28T05:23:43.866Z,1004.03
2022-12-28T05:24:43.873Z,1004.07
2022-12-28T05:25:43.836Z,1004.10
2022-12-28T05:26:43.815Z,1004.13
2022-12-28T05:27:43.844Z,1004.16
2022-12-28T05:28:43.787Z,1004.13
2022-12-28T05:29:43.820Z,1004.12
2022-12-28T05:30:43.766Z,1004.13
2022-12-28T05:31:43.775Z,1004.10
2022-12-28T05:32:43.747Z,1004.06
2022-12-28T05:33:43.748Z,1004.01
2022-12-28T05:34:43.758Z,1003.98
2022-12-28T05:35:43.719Z,1004.05
2022-12-28T05:36:43.693Z,1003.96
2022-12-28T05:37:43.688Z,1003.96
2022-12-28T05:38:43.693Z,1003.92
2022-12-28T05:39:43.662Z,1003.83
2022-12-28T05:40:43.641Z,1003.89
2022-12-28T05:41:43.653Z,1003.87
2022-12-28T05:42:49.483Z,1003.77
2022-12-28T05:43:44.635Z,1003.83
2022-12-28T05:44:43.604Z,1003.83
2022-12-28T05:45:43.577Z,1003.71
2022-12-28T05:46:43.632Z,1003.73
2022-12-28T05:47:43.541Z,1003.73
2022-12-28T05:48:43.524Z,1003.72
2022-12-28T05:49:43.554Z,1003.73
2022-12-28T05:50:43.506Z,1003.68
2022-12-28T05:51:43.541Z,1003.72
2022-12-28T05:52:43.476Z,1003.64
2022-12-28T05:53:43.473Z,1003.71
2022-12-28T05:54:43.463Z,1003.67
2022-12-28T05:55:43.463Z,1003.66
2022-12-28T05:56:43.425Z,1003.67
2022-12-28T05:57:43.428Z,1003.68
2022-12-28T05:58:43.403Z,1003.65
2022-12-28T05:59:43.426Z,1003.66
2022-12-28T06:00:43.373Z,1003.61
2022-12-28T06:01:43.529Z,1003.60
2022-12-28T06:02:43.464Z,1003.65
2022-12-28T06:03:43.340Z,1003.63
2022-12-28T06:04:43.333Z,1003.59
2022-12-28T06:05:43.313Z,1003.61
2022-12-28T06:06:43.290Z,1003.59
2022-12-28T06:07:43.314Z,1003.59
2022-12-28T06:08:43.279Z,1003.56
2022-12-28T06:09:43.267Z,1003.56
2022-12-28T06:10:43.243Z,1003.63
2022-12-28T06:11:43.231Z,1003.53
2022-12-28T06:12:43.230Z,1003.54
2022-12-28T06:13:43.208Z,1003.54
2022-12-28T06:14:43.203Z,1003.50
2022-12-28T06:15:43.190Z,1003.54
2022-12-28T06:16:43.331Z,1003.53
2022-12-28T06:17:43.151Z,1003.53
2022-12-28T06:18:43.135Z,1003.51
2022-12-28T06:19:43.135Z,1003.54
2022-12-28T06:20:43.118Z,1003.53
2022-12-28T06:21:43.158Z,1003.55
2022-12-28T06:22:43.079Z,1003.51
2022-12-28T06:23:43.060Z,1003.46
2022-12-28T06:24:43.083Z,1003.39
2022-12-28T06:25:43.027Z,1003.37
2022-12-28T06:26:43.037Z,1003.44
2022-12-28T06:27:43.021Z,1003.42
2022-12-28T06:28:42.999Z,1003.42
2022-12-28T06:29:43.019Z,1003.39
2022-12-28T06:30:45.353Z,1003.35
2022-12-28T06:31:44.048Z,1003.31
2022-12-28T06:32:42.944Z,1003.27
2022-12-28T06:33:42.925Z,1003.22
2022-12-28T06:34:42.962Z,1003.14
2022-12-28T06:35:42.911Z,1003.16
2022-12-28T06:36:42.893Z,1003.11
2022-12-28T06:37:42.887Z,1003.06
2022-12-28T06:38:42.858Z,1003.05
2022-12-28T06:39:42.853Z,1003.03
2022-12-28T06:41:12.245Z,1002.99
2022-12-28T06:41:43.829Z,1002.97
2022-12-28T06:42:42.814Z,1002.98
2022-12-28T06:43:42.801Z,1002.96
2022-12-28T06:44:44.807Z,1002.92
2022-12-28T06:45:42.793Z,1002.80
2022-12-28T06:46:42.769Z,1002.79
2022-12-28T06:47:42.762Z,1002.82
2022-12-28T06:48:42.743Z,1002.75
2022-12-28T06:49:42.733Z,1002.72
2022-12-28T06:50:42.715Z,1002.67
2022-12-28T06:51:42.681Z,1002.64
2022-12-28T06:52:42.687Z,1002.63
2022-12-28T06:53:42.667Z,1002.58
2022-12-28T06:54:42.674Z,1002.50
2022-12-28T06:55:42.650Z,1002.54
2022-12-28T06:56:42.679Z,1002.54
2022-12-28T06:57:42.617Z,1002.49
2022-12-28T06:58:42.603Z,1002.52
2022-12-28T06:59:42.613Z,1002.52
2022-12-28T07:00:42.583Z,1002.41
2022-12-28T07:01:42.778Z,1002.46
2022-12-28T07:02:42.723Z,1002.47
2022-12-28T07:03:42.685Z,1002.46
2022-12-28T07:04:42.695Z,1002.46
2022-12-28T07:05:42.749Z,1002.50
2022-12-28T07:06:42.650Z,1002.53
2022-12-28T07:07:42.681Z,1002.47
2022-12-28T07:08:42.643Z,1002.49
2022-12-28T07:09:42.486Z,1002.48
2022-12-28T07:10:42.603Z,1002.42
2022-12-28T07:11:42.445Z,1002.39
2022-12-28T07:12:42.564Z,1002.45
2022-12-28T07:13:42.410Z,1002.42
2022-12-28T07:14:42.528Z,1002.39
2022-12-28T07:15:42.369Z,1002.45
2022-12-28T07:17:21.621Z,1002.43
2022-12-28T07:18:21.550Z,1002.44
2022-12-28T07:19:21.615Z,1002.45
2022-12-28T07:20:21.454Z,1002.39
2022-12-28T07:21:21.588Z,1002.44
2022-12-28T07:22:21.433Z,1002.41
2022-12-28T07:23:21.391Z,1002.41
2022-12-28T07:24:21.426Z,1002.31
2022-12-28T07:25:21.398Z,1002.35
2022-12-28T07:26:21.351Z,1002.33
2022-12-28T07:27:21.341Z,1002.31
2022-12-28T07:28:21.320Z,1002.27
2022-12-28T07:29:21.317Z,1002.31
2022-12-28T07:30:21.331Z,1002.27
2022-12-28T07:31:21.352Z,1002.24
2022-12-28T07:32:21.282Z,1002.28
2022-12-28T07:33:21.249Z,1002.21
2022-12-28T07:34:21.398Z,1002.23
2022-12-28T07:35:21.250Z,1002.21
2022-12-28T07:36:21.261Z,1002.13
2022-12-28T07:37:21.204Z,1002.18
2022-12-28T07:38:21.797Z,1002.28
2022-12-28T07:39:21.191Z,1002.36
2022-12-28T07:40:21.192Z,1002.32
2022-12-28T07:41:21.149Z,1002.40
2022-12-28T07:42:21.173Z,1002.40
2022-12-28T07:43:21.137Z,1002.39
2022-12-28T07:44:21.118Z,1002.37
2022-12-28T07:45:21.124Z,1002.39
2022-12-28T07:46:21.183Z,1002.41
2022-12-28T07:47:21.080Z,1002.40
2022-12-28T07:48:21.101Z,1002.35
2022-12-28T07:49:21.068Z,1002.35
2022-12-28T07:50:21.051Z,1002.36
2022-12-28T07:51:21.025Z,1002.47
2022-12-28T07:52:21.016Z,1002.47
2022-12-28T07:53:22.300Z,1002.47
2022-12-28T07:54:20.982Z,1002.50
2022-12-28T07:55:20.973Z,1002.51
2022-12-28T07:56:20.953Z,1002.48
2022-12-28T07:57:21.794Z,1002.47
2022-12-28T07:58:20.943Z,1002.41
2022-12-28T07:59:24.696Z,1002.40
2022-12-28T08:00:21.967Z,1002.35
2022-12-28T08:01:21.064Z,1002.29
2022-12-28T08:02:21.001Z,1002.23
2022-12-28T08:03:20.928Z,1002.21
2022-12-28T08:04:20.852Z,1002.19
2022-12-28T08:05:20.867Z,1002.17
2022-12-28T08:06:20.843Z,1002.15
2022-12-28T08:07:20.844Z,1002.15
2022-12-28T08:08:20.821Z,1002.15
2022-12-28T08:09:20.788Z,1002.13
2022-12-28T08:10:20.831Z,1002.19
2022-12-28T08:11:20.785Z,1002.16
2022-12-28T08:12:20.763Z,1002.16
2022-12-28T08:13:20.747Z,1002.17
2022-12-28T08:14:20.724Z,1002.15
2022-12-28T08:15:20.724Z,1002.17
2022-12-28T08:16:20.782Z,1002.16
2022-12-28T08:17:21.374Z,1002.15
2022-12-28T08:18:20.690Z,1002.13
2022-12-28T08:19:20.667Z,1002.14
2022-12-28T08:20:20.687Z,1002.15
2022-12-28T08:21:20.635Z,1002.16
2022-12-28T08:22:20.641Z,1002.14
2022-12-28T08:23:20.599Z,1002.16
2022-12-28T08:24:20.599Z,1002.14
2022-12-28T08:25:20.592Z,1002.15
2022-12-28T08:26:20.553Z,1002.13
2022-12-28T08:27:20.679Z,1002.08
2022-12-28T08:28:20.551Z,1002.07
2022-12-28T08:29:20.574Z,1002.19
2022-12-28T08:30:20.526Z,1002.14
2022-12-28T08:31:20.584Z,1002.14
2022-12-28T08:32:20.497Z,1002.23
2022-12-28T08:33:20.489Z,1002.20
2022-12-28T08:34:20.456Z,1002.14
2022-12-28T08:35:20.482Z,1002.17
2022-12-28T08:36:20.449Z,1002.18
2022-12-28T08:37:20.447Z,1002.20
2022-12-28T08:38:20.450Z,1002.15
2022-12-28T08:39:20.427Z,1002.11
2022-12-28T08:40:20.415Z,1002.14
2022-12-28T08:41:20.395Z,1002.11
2022-12-28T08:42:20.366Z,1002.08
2022-12-28T08:43:20.369Z,1002.08
2022-12-28T08:44:20.339Z,1002.03
2022-12-28T08:45:20.366Z,1002.10
2022-12-28T08:46:20.470Z,1002.04
2022-12-28T08:47:20.351Z,1002.01
2022-12-28T08:48:20.287Z,1002.03
2022-12-28T08:49:20.274Z,1002.02
2022-12-28T08:50:22.814Z,1002.01
2022-12-28T08:51:21.229Z,1002.02
2022-12-28T08:52:20.225Z,1002.03
2022-12-28T08:53:20.212Z,1001.99
2022-12-28T08:54:20.213Z,1001.97
2022-12-28T08:55:20.222Z,1001.96
2022-12-28T08:56:20.229Z,1001.97
2022-12-28T08:57:20.156Z,1001.96
2022-12-28T08:58:20.169Z,1001.94
2022-12-28T08:59:20.146Z,1001.97
2022-12-28T09:00:20.133Z,1001.98
2022-12-28T09:01:20.194Z,1002.00
2022-12-28T09:02:21.253Z,1002.00
2022-12-28T09:03:20.186Z,1002.06
2022-12-28T09:04:20.103Z,1002.05
2022-12-28T09:05:20.084Z,1002.07
2022-12-28T09:06:20.040Z,1002.08
2022-12-28T09:07:20.029Z,1002.09
2022-12-28T09:08:20.023Z,1002.13
2022-12-28T09:09:20.070Z,1002.12
2022-12-28T09:10:20.032Z,1002.10
2022-12-28T09:11:19.962Z,1002.09
2022-12-28T09:12:19.949Z,1002.05
2022-12-28T09:13:19.949Z,1002.07
2022-12-28T09:14:23.825Z,1002.12
2022-12-28T09:15:19.957Z,1002.10
2022-12-28T09:16:19.941Z,1002.09
2022-12-28T09:17:19.881Z,1002.05
2022-12-28T09:18:19.868Z,1002.01
2022-12-28T09:19:19.896Z,1002.02
2022-12-28T09:20:19.884Z,1002.04
2022-12-28T09:21:19.835Z,1002.01
2022-12-28T09:22:19.822Z,1002.01
2022-12-28T09:23:19.827Z,1001.96
2022-12-28T09:24:19.797Z,1001.96
2022-12-28T09:25:19.793Z,1001.92
2022-12-28T09:26:19.769Z,1001.97
2022-12-28T09:27:19.765Z,1001.94
2022-12-28T09:28:19.750Z,1001.90
2022-12-28T09:29:19.766Z,1001.93
2022-12-28T09:30:19.716Z,1001.93
2022-12-28T09:31:19.744Z,1001.91
2022-12-28T09:32:19.686Z,1001.85
2022-12-28T09:33:19.772Z,1001.87
2022-12-28T09:34:37.209Z,1001.82
2022-12-28T09:35:20.675Z,1001.86
2022-12-28T09:36:19.647Z,1001.84
2022-12-28T09:37:19.625Z,1001.84
2022-12-28T09:38:19.609Z,1001.85
2022-12-28T09:39:19.875Z,1001.87
2022-12-28T09:40:19.598Z,1001.84
2022-12-28T09:41:19.572Z,1001.82
2022-12-28T09:42:19.553Z,1001.82
2022-12-28T09:43:19.562Z,1001.82
2022-12-28T09:44:19.547Z,1001.82
2022-12-28T09:45:19.533Z,1001.80
2022-12-28T09:46:19.565Z,1001.79
2022-12-28T09:47:19.526Z,1001.79
2022-12-28T09:48:19.482Z,1001.79
2022-12-28T09:49:19.479Z,1001.74
2022-12-28T09:50:19.483Z,1001.70
2022-12-28T09:51:19.464Z,1001.72
2022-12-28T09:52:19.423Z,1001.61
2022-12-28T09:53:19.411Z,1001.63
2022-12-28T09:54:19.414Z,1001.60
2022-12-28T09:55:19.425Z,1001.51
2022-12-28T09:56:19.380Z,1001.47
2022-12-28T09:57:19.366Z,1001.49
2022-12-28T09:58:19.364Z,1001.43
2022-12-28T09:59:19.346Z,1001.43
2022-12-28T10:00:19.373Z,1001.40
2022-12-28T10:01:19.361Z,1001.41
2022-12-28T10:02:19.352Z,1001.35
2022-12-28T10:03:19.365Z,1001.30
2022-12-28T10:04:19.273Z,1001.31
2022-12-28T10:05:19.287Z,1001.30
2022-12-28T10:06:19.241Z,1001.39
2022-12-28T10:07:19.232Z,1001.30
2022-12-28T10:08:19.225Z,1001.28
2022-12-28T10:09:19.263Z,1001.24
2022-12-28T10:10:19.279Z,1001.25
2022-12-28T10:11:19.173Z,1001.22
2022-12-28T10:12:19.170Z,1001.27
2022-12-28T10:13:53.093Z,1001.32
2022-12-28T10:14:20.155Z,1001.31
2022-12-28T10:15:19.147Z,1001.35
2022-12-28T10:16:19.250Z,1001.26
2022-12-28T10:17:19.101Z,1001.28
2022-12-28T10:18:19.082Z,1001.23
2022-12-28T10:19:19.118Z,1001.23
2022-12-28T10:20:19.296Z,1001.26
2022-12-28T10:21:19.091Z,1001.24
2022-12-28T10:22:19.034Z,1001.18
2022-12-28T10:23:19.030Z,1001.19
2022-12-28T10:24:31.372Z,1001.19
2022-12-28T10:25:20.017Z,1001.24
2022-12-28T10:26:18.980Z,1001.27
2022-12-28T10:27:18.972Z,1001.23
2022-12-28T10:28:18.953Z,1001.28
2022-12-28T10:29:18.951Z,1001.30
2022-12-28T10:30:19.055Z,1001.23
2022-12-28T10:31:18.989Z,1001.32
2022-12-28T10:32:18.900Z,1001.38
2022-12-28T10:33:18.927Z,1001.29
2022-12-28T10:34:18.879Z,1001.34
2022-12-28T10:35:18.869Z,1001.29
2022-12-28T10:36:18.861Z,1001.27
2022-12-28T10:37:18.865Z,1001.30
2022-12-28T10:38:18.842Z,1001.27
2022-12-28T10:39:18.857Z,1001.31
2022-12-28T10:40:18.872Z,1001.22
2022-12-28T10:41:18.798Z,1001.18
2022-12-28T10:42:18.767Z,1001.13
2022-12-28T10:43:18.763Z,1001.19
2022-12-28T10:45:19.772Z,1001.03
2022-12-28T10:46:18.750Z,1001.04
2022-12-28T10:47:18.714Z,1001.01
2022-12-28T10:48:18.694Z,1001.01
2022-12-28T10:49:18.690Z,1000.97
2022-12-28T10:50:36.798Z,1000.94
2022-12-28T10:51:19.650Z,1000.91
2022-12-28T10:52:18.680Z,1000.89
2022-12-28T10:53:18.634Z,1000.88
2022-12-28T10:54:28.222Z,1000.88
2022-12-28T10:55:19.619Z,1000.91
2022-12-28T10:56:18.589Z,1000.84
2022-12-28T10:57:18.586Z,1000.81
2022-12-28T10:59:19.562Z,1000.88
2022-12-28T11:00:18.585Z,1000.81
2022-12-28T11:01:18.678Z,1000.77
2022-12-28T11:02:18.693Z,1000.81
2022-12-28T11:03:18.549Z,1000.81
2022-12-28T11:03:22.059Z,1000.83
2022-12-28T11:04:18.477Z,1000.72
2022-12-28T11:05:18.505Z,1000.79
2022-12-28T11:06:22.816Z,1000.77
2022-12-28T11:07:19.458Z,1000.79
2022-12-28T11:08:18.424Z,1000.75
2022-12-28T11:09:18.425Z,1000.75
2022-12-28T11:10:18.419Z,1000.72
2022-12-28T11:11:18.406Z,1000.72
2022-12-28T11:12:18.374Z,1000.77
2022-12-28T11:13:21.817Z,1000.73
2022-12-28T11:14:18.345Z,1000.70
2022-12-28T11:15:18.357Z,1000.73
2022-12-28T11:16:18.378Z,1000.70
2022-12-28T11:17:18.302Z,1000.74
2022-12-28T11:18:18.307Z,1000.74
2022-12-28T11:19:18.291Z,1000.73
2022-12-28T11:20:18.288Z,1000.74
2022-12-28T11:21:18.271Z,1000.72
2022-12-28T11:22:18.253Z,1000.75
2022-12-28T11:23:18.232Z,1000.72
2022-12-28T11:24:18.221Z,1000.66
2022-12-28T11:25:18.238Z,1000.67
2022-12-28T11:26:18.192Z,1000.63
2022-12-28T11:27:18.202Z,1000.72
2022-12-28T11:28:18.179Z,1000.59
2022-12-28T11:29:18.156Z,1000.61
2022-12-28T11:30:18.428Z,1000.62
2022-12-28T11:31:18.196Z,1000.57
2022-12-28T11:32:18.109Z,1000.61
2022-12-28T11:33:18.141Z,1000.56
2022-12-28T11:34:18.098Z,1000.56
2022-12-28T11:35:18.099Z,1000.55
2022-12-28T11:36:18.072Z,1000.51
2022-12-28T11:37:18.074Z,1000.54
2022-12-28T11:38:18.037Z,1000.43
2022-12-28T11:39:18.033Z,1000.50
2022-12-28T11:40:18.027Z,1000.52
2022-12-28T11:41:18.003Z,1000.46
2022-12-28T11:43:18.972Z,1000.33
2022-12-28T11:44:17.960Z,1000.37
2022-12-28T11:45:17.959Z,1000.43
2022-12-28T11:46:18.024Z,1000.47
2022-12-28T11:47:17.932Z,1000.46
2022-12-28T11:48:17.907Z,1000.43
2022-12-28T11:49:17.898Z,1000.48
2022-12-28T11:50:17.898Z,1000.46
2022-12-28T11:51:17.882Z,1000.41
2022-12-28T11:52:17.855Z,1000.45
2022-12-28T11:53:17.836Z,1000.44
2022-12-28T11:54:17.827Z,1000.41
2022-12-28T11:55:17.825Z,1000.41
2022-12-28T11:56:17.827Z,1000.38
2022-12-28T11:57:17.818Z,1000.43
2022-12-28T11:58:17.788Z,1000.39
2022-12-28T11:59:17.791Z,1000.43
2022-12-28T12:00:22.229Z,1000.36
2022-12-28T12:01:18.800Z,1000.34
2022-12-28T12:02:17.738Z,1000.41
2022-12-28T12:03:17.767Z,1000.41
2022-12-28T12:04:17.717Z,1000.44
2022-12-28T12:05:17.707Z,1000.38
2022-12-28T12:06:17.698Z,1000.33
2022-12-28T12:07:17.664Z,1000.30
2022-12-28T12:08:17.642Z,1000.35